Weather at Daniel K Inouye International Airport

Public forecast

Using degrees Fahrenheit for public forecast. Weather courtesy of forecast.io.

Current aviation weather report (METAR) for Daniel K Inouye International Airport

2024/04/18 04:53 (retrieved 16 minutes ago)

PHNL 180453Z 03006KT 10SM FEW025 FEW060 23/17 A3002 RMK AO2 SLP165 T02330167

Closest aviation forecast (TAF) to Daniel K Inouye International Airport

Forecast is more than 12 hours old.

Closest forecast is Wheeler Army Airfield, 11.5 nm (21.4 km) NNW.

2024/04/17 07:06 (retrieved 22 hours ago)

TAF TAF PHHI 170700Z 1707/1813 35006KT 9999 SCT030 BKN040 QNH3002INS TEMPO 1714/1717 9000 -DZ FEW006 BKN014 BKN020 BECMG 1719/1720 01009KT 9999 BKN020 BKN050 QNH3005INS TEMPO 1721/1803 02012G18KT TX25/1723Z TN18/1716Z